LFOA

Avord (BA 702) Air Base

Airport
ICAO code
LFOA
Summary
ICAO Region
EUR
ICAO Territory
Location

, Centre

Serving
Avord
Elevation
580 ft
Coordinates
47° 3' 12" N , 2° 37' 57" E
Metar
LFOA 240400Z AUTO 20005KT CAVOK 02/01 Q1000 TEMPO 4000 -SHRA BKN012 BKN025TCU

Runways

Designator Length Width Surface Rops
6/24 3503 45 ASP No/No

Airport map

Aerial View

SKYbrary Partners:

Safety knowledge contributed by: